Ryozan Maru — JG5364 — position and weather

sailwx.info

Track history (hours):
 
Tides and Currents Weather Stations Pressure Air Temp Water Temp Dewpoint Dewpoint Depression Visibility Wind Speed Wind Dir Waves Ship Positions

Ryozan Maru

Last reported at 2017-Oct-07 05:08 UTC. Time now 2017-Oct-17 02:21 UTC.
Position N 34°57' E 139°25'.
Warning: this ship's position is 9 days out of date.

Length 65 m; draft 4.6 m.

Type: Tanker. MMSI: 431100316.

Date/timePositionNaut miles runAvg speedWind from/ knotsBaromVisibWave heightAir tempDewpointWater temp
2017-Oct-07 05:08N 34°57' E 139°25'210.9
2017-Oct-07 04:57N 34°58' E 139°27'511.1
2017-Oct-07 04:31N 35°02' E 139°31'611.7
2017-Oct-07 04:00N 35°06' E 139°37'612.6
2017-Oct-07 03:29N 35°09' E 139°43'612.3
2017-Oct-07 03:00N 35°15' E 139°46'612.4
2017-Oct-07 02:30N 35°20' E 139°42'4 7.8
2017-Oct-07 02:00N 35°24' E 139°44'0 0.1
2017-Oct-07 01:29N 35°23' E 139°44'0 0.0
2017-Oct-07 00:59N 35°23' E 139°44'0 0.1
2017-Oct-07 00:29N 35°23' E 139°44'0 0.0
2017-Oct-06 23:59N 35°23' E 139°44'0 0.1
2017-Oct-06 23:29N 35°23' E 139°44'0 0.1
2017-Oct-06 22:59N 35°23' E 139°44'0 0.0
2017-Oct-06 22:29N 35°23' E 139°44'0 0.0
2017-Oct-06 21:59N 35°23' E 139°44'0 0.0
2017-Oct-06 21:29N 35°23' E 139°44'0 0.0
2017-Oct-06 20:59N 35°23' E 139°44'0 0.0
2017-Oct-06 20:29N 35°23' E 139°44'0 0.1
2017-Oct-06 19:59N 35°24' E 139°44'0 0.0
2017-Oct-06 19:29N 35°24' E 139°44'0 0.1
2017-Oct-06 18:59N 35°23' E 139°44'0 0.0
2017-Oct-06 18:29N 35°23' E 139°44'0 0.1
2017-Oct-06 17:59N 35°23' E 139°44'0 0.1
2017-Oct-06 17:29N 35°23' E 139°44'0 0.1
2017-Oct-06 16:59N 35°23' E 139°44'0 0.0
2017-Oct-06 16:29N 35°23' E 139°44'0 0.0
2017-Oct-06 15:59N 35°23' E 139°44'0 0.1
2017-Oct-06 15:29N 35°23' E 139°44'0 0.1
2017-Oct-06 14:59N 35°23' E 139°44'0 0.1
2017-Oct-06 14:26N 35°23' E 139°44'0 0.0
2017-Oct-06 13:59N 35°23' E 139°44'0 0.0
2017-Oct-06 13:29N 35°23' E 139°44'0 0.0
2017-Oct-06 12:59N 35°23' E 139°44'0 0.0
2017-Oct-06 12:29N 35°23' E 139°44'0 0.0
2017-Oct-06 11:59N 35°23' E 139°44'0 0.0
2017-Oct-06 11:29N 35°23' E 139°44'0 0.0
2017-Oct-06 10:59N 35°23' E 139°44'0 0.0
2017-Oct-06 10:29N 35°23' E 139°44'0 0.0
2017-Oct-06 09:59N 35°23' E 139°44'0 0.0
2017-Oct-06 09:29N 35°23' E 139°44'0 0.0
2017-Oct-06 08:59N 35°23' E 139°44'0 0.0
2017-Oct-06 08:29N 35°23' E 139°44'0 0.1
2017-Oct-06 07:59N 35°23' E 139°44'0 0.1
2017-Oct-06 07:29N 35°23' E 139°44'0 0.0
2017-Oct-06 06:59N 35°23' E 139°44'0 0.0
2017-Oct-06 06:29N 35°23' E 139°44'0 0.0
2017-Oct-06 05:59N 35°23' E 139°44'0 0.0
2017-Oct-06 05:29N 35°23' E 139°44'0 0.0
2017-Oct-06 04:59N 35°23' E 139°44'0 0.0
2017-Oct-06 04:29N 35°23' E 139°44'0 0.0
2017-Oct-06 03:59N 35°23' E 139°44'1 1.2
2017-Oct-06 03:30N 35°23' E 139°44'4 8.4
2017-Oct-06 03:01N 35°25' E 139°39'0 0.0
2017-Oct-06 02:30N 35°25' E 139°39'0 0.0
2017-Oct-06 02:00N 35°25' E 139°39'0 0.0
2017-Oct-06 01:30N 35°25' E 139°39'0 0.0
2017-Oct-06 01:00N 35°25' E 139°39'0 0.0
2017-Oct-06 00:30N 35°25' E 139°39'0 0.0
2017-Oct-06 00:00N 35°25' E 139°39'0 0.0
2017-Oct-05 23:30N 35°25' E 139°39'1 1.3
2017-Oct-05 23:00N 35°24' E 139°39'2 3.7
2017-Oct-05 22:29N 35°22' E 139°40'0 0.0
2017-Oct-05 21:59N 35°22' E 139°40'0 0.0
2017-Oct-05 21:29N 35°22' E 139°40'0 0.1
2017-Oct-05 20:59N 35°22' E 139°40'0 0.1
2017-Oct-05 20:29N 35°22' E 139°40'0 0.1
2017-Oct-05 19:59N 35°22' E 139°40'0 0.0
2017-Oct-05 19:29N 35°22' E 139°40'0 0.0
2017-Oct-05 18:59N 35°22' E 139°40'0 0.0
2017-Oct-05 18:29N 35°22' E 139°40'0 0.0
2017-Oct-05 17:59N 35°22' E 139°40'0 0.0
2017-Oct-05 17:29N 35°22' E 139°40'0 0.0
2017-Oct-05 16:59N 35°22' E 139°40'0 0.0
2017-Oct-05 15:29N 35°22' E 139°40'0 0.0
2017-Oct-05 14:59N 35°22' E 139°40'0 0.0
2017-Oct-05 14:29N 35°22' E 139°40'0 0.0
2017-Oct-05 13:59N 35°22' E 139°40'0 0.0
2017-Oct-05 13:29N 35°22' E 139°40'0 0.0
2017-Oct-05 12:59N 35°22' E 139°40'0 0.0
2017-Oct-05 12:29N 35°22' E 139°40'0 0.0
2017-Oct-05 11:59N 35°22' E 139°40'0 0.0
2017-Oct-05 11:29N 35°22' E 139°40'0 0.2
2017-Oct-05 11:00N 35°22' E 139°40'5 9.9
2017-Oct-05 10:30N 35°19' E 139°44'510.6
2017-Oct-05 10:00N 35°14' E 139°47'612.0
2017-Oct-05 09:30N 35°08' E 139°46'612.3
2017-Oct-05 09:00N 35°03' E 139°42'612.5
2017-Oct-05 08:30N 34°59' E 139°35'  
Track history (hours):
 
Tides and Currents Weather Stations Pressure Air Temp Water Temp Dewpoint Dewpoint Depression Visibility Wind Speed Wind Dir Waves Ship Positions

Ryozan Maru

Last reported at 2017-Oct-07 05:08 UTC. Time now 2017-Oct-17 02:21 UTC.
Position N 34°57' E 139°25'.
Warning: this ship's position is 9 days out of date.

Length 65 m; draft 4.6 m.

Type: Tanker. MMSI: 431100316.

Date/timePositionNaut miles runAvg speedWind from/ knotsBaromVisibWave heightAir tempDewpointWater temp
2017-Oct-07 05:08N 34°57' E 139°25'210.9
2017-Oct-07 04:57N 34°58' E 139°27'511.1
2017-Oct-07 04:31N 35°02' E 139°31'611.7
2017-Oct-07 04:00N 35°06' E 139°37'612.6
2017-Oct-07 03:29N 35°09' E 139°43'612.3
2017-Oct-07 03:00N 35°15' E 139°46'612.4
2017-Oct-07 02:30N 35°20' E 139°42'4 7.8
2017-Oct-07 02:00N 35°24' E 139°44'0 0.1
2017-Oct-07 01:29N 35°23' E 139°44'0 0.0
2017-Oct-07 00:59N 35°23' E 139°44'0 0.1
2017-Oct-07 00:29N 35°23' E 139°44'0 0.0
2017-Oct-06 23:59N 35°23' E 139°44'0 0.1
2017-Oct-06 23:29N 35°23' E 139°44'0 0.1
2017-Oct-06 22:59N 35°23' E 139°44'0 0.0
2017-Oct-06 22:29N 35°23' E 139°44'0 0.0
2017-Oct-06 21:59N 35°23' E 139°44'0 0.0
2017-Oct-06 21:29N 35°23' E 139°44'0 0.0
2017-Oct-06 20:59N 35°23' E 139°44'0 0.0
2017-Oct-06 20:29N 35°23' E 139°44'0 0.1
2017-Oct-06 19:59N 35°24' E 139°44'0 0.0
2017-Oct-06 19:29N 35°24' E 139°44'0 0.1
2017-Oct-06 18:59N 35°23' E 139°44'0 0.0
2017-Oct-06 18:29N 35°23' E 139°44'0 0.1
2017-Oct-06 17:59N 35°23' E 139°44'0 0.1
2017-Oct-06 17:29N 35°23' E 139°44'0 0.1
2017-Oct-06 16:59N 35°23' E 139°44'0 0.0
2017-Oct-06 16:29N 35°23' E 139°44'0 0.0
2017-Oct-06 15:59N 35°23' E 139°44'0 0.1
2017-Oct-06 15:29N 35°23' E 139°44'0 0.1
2017-Oct-06 14:59N 35°23' E 139°44'0 0.1
2017-Oct-06 14:26N 35°23' E 139°44'0 0.0
2017-Oct-06 13:59N 35°23' E 139°44'0 0.0
2017-Oct-06 13:29N 35°23' E 139°44'0 0.0
2017-Oct-06 12:59N 35°23' E 139°44'0 0.0
2017-Oct-06 12:29N 35°23' E 139°44'0 0.0
2017-Oct-06 11:59N 35°23' E 139°44'0 0.0
2017-Oct-06 11:29N 35°23' E 139°44'0 0.0
2017-Oct-06 10:59N 35°23' E 139°44'0 0.0
2017-Oct-06 10:29N 35°23' E 139°44'0 0.0
2017-Oct-06 09:59N 35°23' E 139°44'0 0.0
2017-Oct-06 09:29N 35°23' E 139°44'0 0.0
2017-Oct-06 08:59N 35°23' E 139°44'0 0.0
2017-Oct-06 08:29N 35°23' E 139°44'0 0.1
2017-Oct-06 07:59N 35°23' E 139°44'0 0.1
2017-Oct-06 07:29N 35°23' E 139°44'0 0.0
2017-Oct-06 06:59N 35°23' E 139°44'0 0.0
2017-Oct-06 06:29N 35°23' E 139°44'0 0.0
2017-Oct-06 05:59N 35°23' E 139°44'0 0.0
2017-Oct-06 05:29N 35°23' E 139°44'0 0.0
2017-Oct-06 04:59N 35°23' E 139°44'0 0.0
2017-Oct-06 04:29N 35°23' E 139°44'0 0.0
2017-Oct-06 03:59N 35°23' E 139°44'1 1.2
2017-Oct-06 03:30N 35°23' E 139°44'4 8.4
2017-Oct-06 03:01N 35°25' E 139°39'0 0.0
2017-Oct-06 02:30N 35°25' E 139°39'0 0.0
2017-Oct-06 02:00N 35°25' E 139°39'0 0.0
2017-Oct-06 01:30N 35°25' E 139°39'0 0.0
2017-Oct-06 01:00N 35°25' E 139°39'0 0.0
2017-Oct-06 00:30N 35°25' E 139°39'0 0.0
2017-Oct-06 00:00N 35°25' E 139°39'0 0.0
2017-Oct-05 23:30N 35°25' E 139°39'1 1.3
2017-Oct-05 23:00N 35°24' E 139°39'2 3.7
2017-Oct-05 22:29N 35°22' E 139°40'0 0.0
2017-Oct-05 21:59N 35°22' E 139°40'0 0.0
2017-Oct-05 21:29N 35°22' E 139°40'0 0.1
2017-Oct-05 20:59N 35°22' E 139°40'0 0.1
2017-Oct-05 20:29N 35°22' E 139°40'0 0.1
2017-Oct-05 19:59N 35°22' E 139°40'0 0.0
2017-Oct-05 19:29N 35°22' E 139°40'0 0.0
2017-Oct-05 18:59N 35°22' E 139°40'0 0.0
2017-Oct-05 18:29N 35°22' E 139°40'0 0.0
2017-Oct-05 17:59N 35°22' E 139°40'0 0.0
2017-Oct-05 17:29N 35°22' E 139°40'0 0.0
2017-Oct-05 16:59N 35°22' E 139°40'0 0.0
2017-Oct-05 15:29N 35°22' E 139°40'0 0.0
2017-Oct-05 14:59N 35°22' E 139°40'0 0.0
2017-Oct-05 14:29N 35°22' E 139°40'0 0.0
2017-Oct-05 13:59N 35°22' E 139°40'0 0.0
2017-Oct-05 13:29N 35°22' E 139°40'0 0.0
2017-Oct-05 12:59N 35°22' E 139°40'0 0.0
2017-Oct-05 12:29N 35°22' E 139°40'0 0.0
2017-Oct-05 11:59N 35°22' E 139°40'0 0.0
2017-Oct-05 11:29N 35°22' E 139°40'0 0.2
2017-Oct-05 11:00N 35°22' E 139°40'5 9.9
2017-Oct-05 10:30N 35°19' E 139°44'510.6
2017-Oct-05 10:00N 35°14' E 139°47'612.0
2017-Oct-05 09:30N 35°08' E 139°46'612.3
2017-Oct-05 09:00N 35°03' E 139°42'612.5
2017-Oct-05 08:30N 34°59' E 139°35'  

Dump ship's entire track history